sensor_id;sensor_type;location;lat;lon;timestamp;pressure;altitude;pressure_sealevel;temperature;humidity
81997;BME280;71500;50.806;8.774;2023-07-20T00:00:58;99426.12;;;16.97;64.79
81997;BME280;71500;50.806;8.774;2023-07-20T00:03:35;99423.58;;;16.93;64.93
81997;BME280;71500;50.806;8.774;2023-07-20T00:06:10;99422.27;;;16.90;64.89
81997;BME280;71500;50.806;8.774;2023-07-20T00:08:42;99421.35;;;16.91;64.96
81997;BME280;71500;50.806;8.774;2023-07-20T00:11:14;99421.31;;;16.91;65.03
81997;BME280;71500;50.806;8.774;2023-07-20T00:13:47;99417.02;;;16.91;65.15
81997;BME280;71500;50.806;8.774;2023-07-20T00:16:19;99412.38;;;16.89;65.18
81997;BME280;71500;50.806;8.774;2023-07-20T00:18:51;99412.89;;;16.86;65.24
81997;BME280;71500;50.806;8.774;2023-07-20T00:21:24;99414.61;;;16.86;65.37
81997;BME280;71500;50.806;8.774;2023-07-20T00:23:56;99415.65;;;16.83;65.34
81997;BME280;71500;50.806;8.774;2023-07-20T00:26:28;99414.70;;;16.81;65.26
81997;BME280;71500;50.806;8.774;2023-07-20T00:29:00;99409.07;;;16.78;65.37
81997;BME280;71500;50.806;8.774;2023-07-20T00:31:32;99415.73;;;16.78;65.48
81997;BME280;71500;50.806;8.774;2023-07-20T00:34:05;99418.22;;;16.77;65.58
81997;BME280;71500;50.806;8.774;2023-07-20T00:36:37;99411.85;;;16.76;65.70
81997;BME280;71500;50.806;8.774;2023-07-20T00:39:09;99413.68;;;16.77;65.66
81997;BME280;71500;50.806;8.774;2023-07-20T00:41:41;99412.67;;;16.78;65.69
81997;BME280;71500;50.806;8.774;2023-07-20T00:44:13;99414.77;;;16.80;65.56
81997;BME280;71500;50.806;8.774;2023-07-20T00:46:45;99413.73;;;16.88;65.42
81997;BME280;71500;50.806;8.774;2023-07-20T00:49:17;99411.44;;;16.90;65.48
81997;BME280;71500;50.806;8.774;2023-07-20T00:51:52;99406.30;;;16.86;65.56
81997;BME280;71500;50.806;8.774;2023-07-20T00:54:24;99405.45;;;16.81;65.54
81997;BME280;71500;50.806;8.774;2023-07-20T00:56:56;99407.89;;;16.79;65.53
81997;BME280;71500;50.806;8.774;2023-07-20T00:59:29;99407.18;;;16.79;65.57
81997;BME280;71500;50.806;8.774;2023-07-20T01:02:01;99407.92;;;16.79;65.53
81997;BME280;71500;50.806;8.774;2023-07-20T01:04:34;99406.40;;;16.77;65.67
81997;BME280;71500;50.806;8.774;2023-07-20T01:07:12;99403.64;;;16.73;65.64
81997;BME280;71500;50.806;8.774;2023-07-20T01:09:51;99404.03;;;16.71;65.69
81997;BME280;71500;50.806;8.774;2023-07-20T01:12:27;99399.76;;;16.65;65.88
81997;BME280;71500;50.806;8.774;2023-07-20T01:15:03;99404.60;;;16.59;65.96
81997;BME280;71500;50.806;8.774;2023-07-20T01:17:36;99405.48;;;16.53;66.13
81997;BME280;71500;50.806;8.774;2023-07-20T01:20:12;99409.00;;;16.48;66.20
81997;BME280;71500;50.806;8.774;2023-07-20T01:23:05;99411.61;;;16.42;66.28
81997;BME280;71500;50.806;8.774;2023-07-20T01:26:00;99410.34;;;16.36;66.56
81997;BME280;71500;50.806;8.774;2023-07-20T01:31:27;99404.70;;;16.25;66.88
81997;BME280;71500;50.806;8.774;2023-07-20T01:34:00;99404.05;;;16.21;66.88
81997;BME280;71500;50.806;8.774;2023-07-20T01:36:36;99407.71;;;16.18;66.91
81997;BME280;71500;50.806;8.774;2023-07-20T01:39:09;99406.64;;;16.19;66.87
81997;BME280;71500;50.806;8.774;2023-07-20T01:41:42;99407.83;;;16.24;66.82
81997;BME280;71500;50.806;8.774;2023-07-20T01:44:15;99411.98;;;16.23;66.83
81997;BME280;71500;50.806;8.774;2023-07-20T01:46:47;99412.85;;;16.18;66.81
81997;BME280;71500;50.806;8.774;2023-07-20T01:49:19;99412.98;;;16.19;66.99
81997;BME280;71500;50.806;8.774;2023-07-20T01:51:51;99415.70;;;16.17;66.96
81997;BME280;71500;50.806;8.774;2023-07-20T01:54:22;99417.41;;;16.12;67.18
81997;BME280;71500;50.806;8.774;2023-07-20T01:56:54;99411.61;;;16.03;67.19
81997;BME280;71500;50.806;8.774;2023-07-20T01:59:26;99411.70;;;15.98;67.36
81997;BME280;71500;50.806;8.774;2023-07-20T02:01:58;99416.63;;;15.94;67.53
81997;BME280;71500;50.806;8.774;2023-07-20T02:04:30;99408.64;;;15.89;67.73
81997;BME280;71500;50.806;8.774;2023-07-20T02:07:02;99411.96;;;15.84;67.85
81997;BME280;71500;50.806;8.774;2023-07-20T02:09:34;99415.30;;;15.78;67.74
81997;BME280;71500;50.806;8.774;2023-07-20T02:12:07;99418.40;;;15.75;67.89
81997;BME280;71500;50.806;8.774;2023-07-20T02:14:39;99420.64;;;15.75;67.79
81997;BME280;71500;50.806;8.774;2023-07-20T02:17:11;99423.54;;;15.81;67.65
81997;BME280;71500;50.806;8.774;2023-07-20T02:19:44;99424.64;;;15.87;67.54
81997;BME280;71500;50.806;8.774;2023-07-20T02:22:15;99425.11;;;15.92;67.43
81997;BME280;71500;50.806;8.774;2023-07-20T02:24:47;99427.13;;;15.96;67.25
81997;BME280;71500;50.806;8.774;2023-07-20T02:27:19;99425.45;;;15.98;67.19
81997;BME280;71500;50.806;8.774;2023-07-20T02:29:51;99426.30;;;15.99;67.05
81997;BME280;71500;50.806;8.774;2023-07-20T02:32:23;99425.80;;;15.98;67.01
81997;BME280;71500;50.806;8.774;2023-07-20T02:34:55;99423.39;;;15.98;66.94
81997;BME280;71500;50.806;8.774;2023-07-20T02:37:27;99423.25;;;15.94;66.99
81997;BME280;71500;50.806;8.774;2023-07-20T02:39:58;99419.59;;;15.92;66.95
81997;BME280;71500;50.806;8.774;2023-07-20T02:42:29;99423.27;;;15.89;67.01
81997;BME280;71500;50.806;8.774;2023-07-20T02:45:01;99426.95;;;15.87;66.90
81997;BME280;71500;50.806;8.774;2023-07-20T02:47:34;99426.17;;;15.82;67.17
81997;BME280;71500;50.806;8.774;2023-07-20T02:50:08;99423.99;;;15.77;67.25
81997;BME280;71500;50.806;8.774;2023-07-20T02:52:40;99424.42;;;15.77;67.26
81997;BME280;71500;50.806;8.774;2023-07-20T02:55:12;99424.96;;;15.77;67.32
81997;BME280;71500;50.806;8.774;2023-07-20T02:57:44;99426.40;;;15.76;67.21
81997;BME280;71500;50.806;8.774;2023-07-20T03:00:17;99423.96;;;15.76;67.20
81997;BME280;71500;50.806;8.774;2023-07-20T03:02:50;99422.82;;;15.77;67.15
81997;BME280;71500;50.806;8.774;2023-07-20T03:05:23;99425.21;;;15.76;67.00
81997;BME280;71500;50.806;8.774;2023-07-20T03:07:56;99427.75;;;15.77;67.00
81997;BME280;71500;50.806;8.774;2023-07-20T03:10:35;99427.39;;;15.78;66.92
81997;BME280;71500;50.806;8.774;2023-07-20T03:13:09;99430.83;;;15.79;66.92
81997;BME280;71500;50.806;8.774;2023-07-20T03:15:41;99427.65;;;15.77;67.10
81997;BME280;71500;50.806;8.774;2023-07-20T03:18:13;99425.80;;;15.73;67.28
81997;BME280;71500;50.806;8.774;2023-07-20T03:20:44;99422.38;;;15.71;67.30
81997;BME280;71500;50.806;8.774;2023-07-20T03:23:17;99424.65;;;15.73;67.30
81997;BME280;71500;50.806;8.774;2023-07-20T03:25:48;99424.16;;;15.77;67.17
81997;BME280;71500;50.806;8.774;2023-07-20T03:28:20;99428.52;;;15.83;67.15
81997;BME280;71500;50.806;8.774;2023-07-20T03:30:55;99426.74;;;15.87;67.24
81997;BME280;71500;50.806;8.774;2023-07-20T03:33:28;99426.89;;;15.89;67.00
81997;BME280;71500;50.806;8.774;2023-07-20T03:36:00;99420.35;;;15.90;67.19
81997;BME280;71500;50.806;8.774;2023-07-20T03:38:32;99421.70;;;15.88;66.99
81997;BME280;71500;50.806;8.774;2023-07-20T03:41:04;99423.45;;;15.88;66.89
81997;BME280;71500;50.806;8.774;2023-07-20T03:43:36;99421.52;;;15.89;66.77
81997;BME280;71500;50.806;8.774;2023-07-20T03:46:07;99424.81;;;15.90;66.65
81997;BME280;71500;50.806;8.774;2023-07-20T03:48:39;99430.79;;;15.89;66.58
81997;BME280;71500;50.806;8.774;2023-07-20T03:51:11;99430.80;;;15.88;66.70
81997;BME280;71500;50.806;8.774;2023-07-20T03:53:43;99430.95;;;15.87;66.66
81997;BME280;71500;50.806;8.774;2023-07-20T03:56:15;99431.90;;;15.86;66.62
81997;BME280;71500;50.806;8.774;2023-07-20T03:58:47;99432.56;;;15.85;66.64
81997;BME280;71500;50.806;8.774;2023-07-20T04:01:19;99435.84;;;15.83;66.64
81997;BME280;71500;50.806;8.774;2023-07-20T04:03:51;99439.67;;;15.81;66.71
81997;BME280;71500;50.806;8.774;2023-07-20T04:06:23;99440.86;;;15.79;66.70
81997;BME280;71500;50.806;8.774;2023-07-20T04:08:54;99444.48;;;15.75;66.79
81997;BME280;71500;50.806;8.774;2023-07-20T04:11:26;99452.04;;;15.73;66.93
81997;BME280;71500;50.806;8.774;2023-07-20T04:13:58;99454.05;;;15.71;67.09
81997;BME280;71500;50.806;8.774;2023-07-20T04:16:30;99452.72;;;15.69;67.22
81997;BME280;71500;50.806;8.774;2023-07-20T04:19:02;99456.91;;;15.65;67.44
81997;BME280;71500;50.806;8.774;2023-07-20T04:21:39;99455.77;;;15.64;67.42
81997;BME280;71500;50.806;8.774;2023-07-20T04:24:11;99455.23;;;15.67;67.44
81997;BME280;71500;50.806;8.774;2023-07-20T04:26:43;99454.58;;;15.68;67.41
81997;BME280;71500;50.806;8.774;2023-07-20T04:29:15;99450.31;;;15.73;67.24
81997;BME280;71500;50.806;8.774;2023-07-20T04:31:46;99449.47;;;15.75;67.14
81997;BME280;71500;50.806;8.774;2023-07-20T04:34:18;99450.70;;;15.79;67.30
81997;BME280;71500;50.806;8.774;2023-07-20T04:36:50;99452.80;;;15.80;67.25
81997;BME280;71500;50.806;8.774;2023-07-20T04:39:22;99446.25;;;15.83;67.04
81997;BME280;71500;50.806;8.774;2023-07-20T04:42:02;99451.43;;;15.84;67.24
81997;BME280;71500;50.806;8.774;2023-07-20T04:44:32;99448.23;;;15.86;67.09
81997;BME280;71500;50.806;8.774;2023-07-20T04:47:05;99452.13;;;15.88;67.11
81997;BME280;71500;50.806;8.774;2023-07-20T04:49:38;99449.41;;;15.89;67.02
81997;BME280;71500;50.806;8.774;2023-07-20T04:52:11;99454.48;;;15.91;67.00
81997;BME280;71500;50.806;8.774;2023-07-20T04:54:42;99453.88;;;15.91;67.02
81997;BME280;71500;50.806;8.774;2023-07-20T04:57:14;99448.98;;;15.92;66.97
81997;BME280;71500;50.806;8.774;2023-07-20T04:59:46;99453.40;;;15.91;66.99
81997;BME280;71500;50.806;8.774;2023-07-20T05:02:17;99453.58;;;15.89;66.91
81997;BME280;71500;50.806;8.774;2023-07-20T05:04:49;99449.84;;;15.88;66.99
81997;BME280;71500;50.806;8.774;2023-07-20T05:07:21;99449.34;;;15.85;67.24
81997;BME280;71500;50.806;8.774;2023-07-20T05:09:53;99452.08;;;15.84;67.17
81997;BME280;71500;50.806;8.774;2023-07-20T05:12:25;99447.59;;;15.82;67.16
81997;BME280;71500;50.806;8.774;2023-07-20T05:14:57;99450.45;;;15.82;67.33
81997;BME280;71500;50.806;8.774;2023-07-20T05:17:29;99448.66;;;15.82;67.38
81997;BME280;71500;50.806;8.774;2023-07-20T05:20:01;99444.33;;;15.84;67.37
81997;BME280;71500;50.806;8.774;2023-07-20T05:22:34;99449.07;;;15.92;67.27
81997;BME280;71500;50.806;8.774;2023-07-20T05:25:08;99451.83;;;15.98;67.21
81997;BME280;71500;50.806;8.774;2023-07-20T05:27:41;99452.79;;;16.03;67.13
81997;BME280;71500;50.806;8.774;2023-07-20T05:30:13;99450.84;;;16.09;67.06
81997;BME280;71500;50.806;8.774;2023-07-20T05:32:45;99449.05;;;16.14;67.10
81997;BME280;71500;50.806;8.774;2023-07-20T05:35:21;99446.27;;;16.18;67.06
81997;BME280;71500;50.806;8.774;2023-07-20T05:37:53;99449.67;;;16.21;67.01
81997;BME280;71500;50.806;8.774;2023-07-20T05:40:25;99442.46;;;16.23;67.05
81997;BME280;71500;50.806;8.774;2023-07-20T05:42:57;99446.63;;;16.23;67.02
81997;BME280;71500;50.806;8.774;2023-07-20T05:45:31;99449.38;;;16.23;66.99
81997;BME280;71500;50.806;8.774;2023-07-20T05:48:02;99451.63;;;16.23;66.98
81997;BME280;71500;50.806;8.774;2023-07-20T05:50:34;99453.52;;;16.24;66.98
81997;BME280;71500;50.806;8.774;2023-07-20T05:53:06;99456.66;;;16.25;66.99
81997;BME280;71500;50.806;8.774;2023-07-20T05:55:38;99453.56;;;16.25;67.03
81997;BME280;71500;50.806;8.774;2023-07-20T05:58:10;99456.44;;;16.24;67.13
81997;BME280;71500;50.806;8.774;2023-07-20T06:00:42;99452.92;;;16.23;67.21
81997;BME280;71500;50.806;8.774;2023-07-20T06:03:14;99452.82;;;16.23;67.53
81997;BME280;71500;50.806;8.774;2023-07-20T06:05:46;99453.77;;;16.22;67.61
81997;BME280;71500;50.806;8.774;2023-07-20T06:08:18;99458.20;;;16.23;67.67
81997;BME280;71500;50.806;8.774;2023-07-20T06:10:52;99460.61;;;16.22;67.68
81997;BME280;71500;50.806;8.774;2023-07-20T06:13:24;99456.83;;;16.21;67.79
81997;BME280;71500;50.806;8.774;2023-07-20T06:15:57;99455.71;;;16.21;67.99
81997;BME280;71500;50.806;8.774;2023-07-20T06:18:29;99459.66;;;16.28;68.04
81997;BME280;71500;50.806;8.774;2023-07-20T06:21:01;99459.98;;;16.34;67.90
81997;BME280;71500;50.806;8.774;2023-07-20T06:23:33;99462.13;;;16.39;67.94
81997;BME280;71500;50.806;8.774;2023-07-20T06:26:05;99465.35;;;16.45;67.95
81997;BME280;71500;50.806;8.774;2023-07-20T06:28:37;99464.65;;;16.51;67.93
81997;BME280;71500;50.806;8.774;2023-07-20T06:31:08;99460.77;;;16.57;67.77
81997;BME280;71500;50.806;8.774;2023-07-20T06:33:40;99457.15;;;16.63;67.37
81997;BME280;71500;50.806;8.774;2023-07-20T06:36:12;99461.02;;;16.70;67.04
81997;BME280;71500;50.806;8.774;2023-07-20T06:38:44;99459.10;;;16.77;66.86
81997;BME280;71500;50.806;8.774;2023-07-20T06:41:36;99456.14;;;16.85;66.78
81997;BME280;71500;50.806;8.774;2023-07-20T06:44:11;99454.77;;;16.92;66.18
81997;BME280;71500;50.806;8.774;2023-07-20T06:46:43;99456.52;;;16.99;65.98
81997;BME280;71500;50.806;8.774;2023-07-20T06:49:25;99457.86;;;17.06;65.49
81997;BME280;71500;50.806;8.774;2023-07-20T06:51:58;99457.23;;;17.15;64.45
81997;BME280;71500;50.806;8.774;2023-07-20T06:54:30;99456.71;;;17.24;64.38
81997;BME280;71500;50.806;8.774;2023-07-20T06:57:06;99461.44;;;17.32;64.41
81997;BME280;71500;50.806;8.774;2023-07-20T06:59:41;99462.70;;;17.39;63.64
81997;BME280;71500;50.806;8.774;2023-07-20T07:02:18;99466.39;;;17.46;62.77
81997;BME280;71500;50.806;8.774;2023-07-20T07:04:49;99466.95;;;17.51;62.66
81997;BME280;71500;50.806;8.774;2023-07-20T07:07:30;99470.57;;;17.59;62.36
81997;BME280;71500;50.806;8.774;2023-07-20T07:10:02;99466.98;;;17.65;62.42
81997;BME280;71500;50.806;8.774;2023-07-20T07:12:35;99470.25;;;17.70;62.19
81997;BME280;71500;50.806;8.774;2023-07-20T07:15:09;99474.64;;;17.77;61.77
81997;BME280;71500;50.806;8.774;2023-07-20T07:17:41;99481.25;;;17.83;61.57
81997;BME280;71500;50.806;8.774;2023-07-20T07:20:14;99480.57;;;17.88;61.07
81997;BME280;71500;50.806;8.774;2023-07-20T07:22:51;99472.60;;;17.90;60.77
81997;BME280;71500;50.806;8.774;2023-07-20T07:25:23;99472.97;;;17.93;60.67
81997;BME280;71500;50.806;8.774;2023-07-20T07:27:55;99471.88;;;17.96;60.41
81997;BME280;71500;50.806;8.774;2023-07-20T07:30:27;99473.29;;;17.99;60.19
81997;BME280;71500;50.806;8.774;2023-07-20T07:33:00;99476.10;;;18.02;60.18
81997;BME280;71500;50.806;8.774;2023-07-20T07:35:32;99477.82;;;18.07;59.97
81997;BME280;71500;50.806;8.774;2023-07-20T07:38:04;99477.00;;;18.13;59.67
81997;BME280;71500;50.806;8.774;2023-07-20T07:40:57;99473.77;;;18.19;59.23
81997;BME280;71500;50.806;8.774;2023-07-20T07:43:29;99477.09;;;18.24;58.89
81997;BME280;71500;50.806;8.774;2023-07-20T07:46:01;99468.19;;;18.30;58.64
81997;BME280;71500;50.806;8.774;2023-07-20T07:48:34;99474.81;;;18.36;58.26
81997;BME280;71500;50.806;8.774;2023-07-20T07:51:06;99476.64;;;18.43;57.53
81997;BME280;71500;50.806;8.774;2023-07-20T07:53:38;99476.27;;;18.50;56.79
81997;BME280;71500;50.806;8.774;2023-07-20T07:56:11;99473.41;;;18.57;55.82
81997;BME280;71500;50.806;8.774;2023-07-20T07:58:42;99477.23;;;18.65;55.42
81997;BME280;71500;50.806;8.774;2023-07-20T08:01:14;99477.60;;;18.72;55.26
81997;BME280;71500;50.806;8.774;2023-07-20T08:03:47;99475.91;;;18.77;54.83
81997;BME280;71500;50.806;8.774;2023-07-20T08:06:19;99477.56;;;18.82;54.65
81997;BME280;71500;50.806;8.774;2023-07-20T08:08:52;99477.70;;;18.88;54.25
81997;BME280;71500;50.806;8.774;2023-07-20T08:11:24;99478.42;;;18.95;54.30
81997;BME280;71500;50.806;8.774;2023-07-20T08:13:54;99474.72;;;19.01;54.16
81997;BME280;71500;50.806;8.774;2023-07-20T08:16:26;99480.05;;;19.07;54.07
81997;BME280;71500;50.806;8.774;2023-07-20T08:19:00;99484.30;;;19.11;53.99
81997;BME280;71500;50.806;8.774;2023-07-20T08:21:33;99478.64;;;19.12;53.47
81997;BME280;71500;50.806;8.774;2023-07-20T08:24:05;99480.55;;;19.14;53.30
81997;BME280;71500;50.806;8.774;2023-07-20T08:26:38;99483.27;;;19.17;53.39
81997;BME280;71500;50.806;8.774;2023-07-20T08:29:09;99484.25;;;19.20;52.97
81997;BME280;71500;50.806;8.774;2023-07-20T08:31:41;99481.36;;;19.23;52.44
81997;BME280;71500;50.806;8.774;2023-07-20T08:34:13;99484.52;;;19.28;52.23
81997;BME280;71500;50.806;8.774;2023-07-20T08:37:01;99482.39;;;19.36;51.78
81997;BME280;71500;50.806;8.774;2023-07-20T08:39:31;99479.27;;;19.42;51.92
81997;BME280;71500;50.806;8.774;2023-07-20T08:42:04;99488.09;;;19.47;51.42
81997;BME280;71500;50.806;8.774;2023-07-20T08:44:36;99489.49;;;19.52;51.22
81997;BME280;71500;50.806;8.774;2023-07-20T08:47:10;99485.89;;;19.56;50.88
81997;BME280;71500;50.806;8.774;2023-07-20T08:49:43;99482.89;;;19.61;51.01
81997;BME280;71500;50.806;8.774;2023-07-20T08:52:16;99484.50;;;19.67;50.68
81997;BME280;71500;50.806;8.774;2023-07-20T08:54:48;99489.52;;;19.73;50.42
81997;BME280;71500;50.806;8.774;2023-07-20T08:57:19;99486.00;;;19.78;50.40
81997;BME280;71500;50.806;8.774;2023-07-20T08:59:53;99480.55;;;19.84;50.40
81997;BME280;71500;50.806;8.774;2023-07-20T09:02:27;99435.05;;;19.62;50.43
81997;BME280;71500;50.806;8.774;2023-07-20T09:05:00;99473.13;;;19.95;50.57
81997;BME280;71500;50.806;8.774;2023-07-20T09:07:32;99470.80;;;20.03;50.07
81997;BME280;71500;50.806;8.774;2023-07-20T09:10:07;99470.73;;;20.09;49.32
81997;BME280;71500;50.806;8.774;2023-07-20T09:12:40;99469.33;;;20.11;49.48
81997;BME280;71500;50.806;8.774;2023-07-20T09:15:13;99474.08;;;20.14;49.74
81997;BME280;71500;50.806;8.774;2023-07-20T09:17:48;99474.42;;;20.16;49.66
81997;BME280;71500;50.806;8.774;2023-07-20T09:20:21;99471.98;;;20.20;49.30
81997;BME280;71500;50.806;8.774;2023-07-20T09:22:53;99480.20;;;20.23;49.99
81997;BME280;71500;50.806;8.774;2023-07-20T09:25:25;99483.29;;;20.24;50.65
81997;BME280;71500;50.806;8.774;2023-07-20T09:28:03;99483.69;;;20.20;51.05
81997;BME280;71500;50.806;8.774;2023-07-20T09:30:35;99482.80;;;20.14;51.36
81997;BME280;71500;50.806;8.774;2023-07-20T09:33:19;99486.86;;;20.10;51.62
81997;BME280;71500;50.806;8.774;2023-07-20T09:35:55;99490.05;;;20.03;51.57
81997;BME280;71500;50.806;8.774;2023-07-20T09:38:52;99484.46;;;19.86;51.67
81997;BME280;71500;50.806;8.774;2023-07-20T09:41:28;99492.58;;;19.89;52.02
81997;BME280;71500;50.806;8.774;2023-07-20T09:44:03;99490.40;;;19.87;52.20
81997;BME280;71500;50.806;8.774;2023-07-20T09:46:55;99491.15;;;19.87;52.04
81997;BME280;71500;50.806;8.774;2023-07-20T09:49:29;99494.44;;;19.87;51.95
81997;BME280;71500;50.806;8.774;2023-07-20T09:52:21;99500.13;;;19.85;51.87
81997;BME280;71500;50.806;8.774;2023-07-20T09:54:56;99496.59;;;19.83;51.79
81997;BME280;71500;50.806;8.774;2023-07-20T09:57:29;99495.80;;;19.81;51.86
81997;BME280;71500;50.806;8.774;2023-07-20T09:59:59;99496.45;;;19.80;51.99
81997;BME280;71500;50.806;8.774;2023-07-20T10:02:35;99498.42;;;19.77;51.84
81997;BME280;71500;50.806;8.774;2023-07-20T10:05:10;99497.30;;;19.75;51.41
81997;BME280;71500;50.806;8.774;2023-07-20T10:07:46;99500.67;;;19.75;51.71
81997;BME280;71500;50.806;8.774;2023-07-20T10:10:19;99499.42;;;19.74;51.42
81997;BME280;71500;50.806;8.774;2023-07-20T10:12:51;99501.00;;;19.74;51.52
81997;BME280;71500;50.806;8.774;2023-07-20T10:15:27;99499.55;;;19.74;51.46
81997;BME280;71500;50.806;8.774;2023-07-20T10:18:06;99494.98;;;19.77;51.47
81997;BME280;71500;50.806;8.774;2023-07-20T10:20:41;99488.70;;;19.85;51.61
81997;BME280;71500;50.806;8.774;2023-07-20T10:23:16;99485.91;;;19.94;51.60
81997;BME280;71500;50.806;8.774;2023-07-20T10:25:49;99485.38;;;20.00;51.58
81997;BME280;71500;50.806;8.774;2023-07-20T10:28:22;99487.77;;;20.03;50.08
81997;BME280;71500;50.806;8.774;2023-07-20T10:30:55;99491.52;;;20.05;49.30
81997;BME280;71500;50.806;8.774;2023-07-20T10:33:27;99480.83;;;20.07;48.34
81997;BME280;71500;50.806;8.774;2023-07-20T10:36:02;99486.35;;;20.15;48.33
81997;BME280;71500;50.806;8.774;2023-07-20T10:38:43;99481.09;;;20.28;48.06
81997;BME280;71500;50.806;8.774;2023-07-20T10:41:27;99471.63;;;20.43;48.80
81997;BME280;71500;50.806;8.774;2023-07-20T10:44:04;99470.60;;;20.58;47.97
81997;BME280;71500;50.806;8.774;2023-07-20T10:46:43;99464.91;;;20.73;47.97
81997;BME280;71500;50.806;8.774;2023-07-20T10:49:16;99462.54;;;20.88;48.00
81997;BME280;71500;50.806;8.774;2023-07-20T10:51:58;99462.71;;;21.02;47.49
81997;BME280;71500;50.806;8.774;2023-07-20T10:54:48;99468.39;;;21.19;47.57
81997;BME280;71500;50.806;8.774;2023-07-20T10:57:31;99469.29;;;21.35;48.02
81997;BME280;71500;50.806;8.774;2023-07-20T11:00:14;99467.05;;;21.39;48.22
81997;BME280;71500;50.806;8.774;2023-07-20T11:02:47;99469.73;;;21.38;48.43
81997;BME280;71500;50.806;8.774;2023-07-20T11:05:40;99469.98;;;21.32;47.83
81997;BME280;71500;50.806;8.774;2023-07-20T11:08:13;99474.85;;;21.20;47.93
81997;BME280;71500;50.806;8.774;2023-07-20T11:11:24;99476.00;;;21.06;48.11
81997;BME280;71500;50.806;8.774;2023-07-20T11:13:57;99474.89;;;20.95;48.17
81997;BME280;71500;50.806;8.774;2023-07-20T11:16:35;99482.40;;;20.85;48.47
81997;BME280;71500;50.806;8.774;2023-07-20T11:19:15;99488.55;;;20.75;48.66
81997;BME280;71500;50.806;8.774;2023-07-20T11:21:52;99488.79;;;20.66;48.95
81997;BME280;71500;50.806;8.774;2023-07-20T11:24:33;99479.34;;;20.55;49.62
81997;BME280;71500;50.806;8.774;2023-07-20T11:27:07;99481.34;;;20.50;50.97
81997;BME280;71500;50.806;8.774;2023-07-20T11:29:39;99483.20;;;20.45;51.38
81997;BME280;71500;50.806;8.774;2023-07-20T11:32:09;99483.80;;;20.35;52.27
81997;BME280;71500;50.806;8.774;2023-07-20T11:34:48;99483.52;;;20.24;52.66
81997;BME280;71500;50.806;8.774;2023-07-20T11:37:20;99487.23;;;20.15;53.34
81997;BME280;71500;50.806;8.774;2023-07-20T11:39:56;99489.14;;;20.07;53.22
81997;BME280;71500;50.806;8.774;2023-07-20T11:42:29;99484.73;;;20.01;53.52
81997;BME280;71500;50.806;8.774;2023-07-20T11:45:05;99486.66;;;19.96;53.55
81997;BME280;71500;50.806;8.774;2023-07-20T11:47:41;99482.66;;;19.94;53.83
81997;BME280;71500;50.806;8.774;2023-07-20T11:50:15;99484.33;;;19.96;52.84
81997;BME280;71500;50.806;8.774;2023-07-20T11:52:46;99485.88;;;19.98;52.45
81997;BME280;71500;50.806;8.774;2023-07-20T11:55:19;99486.52;;;20.02;52.75
81997;BME280;71500;50.806;8.774;2023-07-20T12:00:39;99476.34;;;20.14;52.00
81997;BME280;71500;50.806;8.774;2023-07-20T12:03:15;99468.48;;;20.23;51.71
81997;BME280;71500;50.806;8.774;2023-07-20T12:05:47;99464.73;;;20.32;49.88
81997;BME280;71500;50.806;8.774;2023-07-20T12:08:31;99461.02;;;20.46;49.76
81997;BME280;71500;50.806;8.774;2023-07-20T12:11:03;99456.73;;;20.55;47.93
81997;BME280;71500;50.806;8.774;2023-07-20T12:13:41;99456.54;;;20.61;47.24
81997;BME280;71500;50.806;8.774;2023-07-20T12:16:14;99455.38;;;20.70;47.07
81997;BME280;71500;50.806;8.774;2023-07-20T12:18:46;99453.33;;;20.81;46.73
81997;BME280;71500;50.806;8.774;2023-07-20T12:21:20;99443.04;;;20.91;46.71
81997;BME280;71500;50.806;8.774;2023-07-20T12:23:52;99450.97;;;21.05;46.90
81997;BME280;71500;50.806;8.774;2023-07-20T12:26:24;99445.78;;;21.17;45.96
81997;BME280;71500;50.806;8.774;2023-07-20T12:28:56;99441.45;;;21.30;46.45
81997;BME280;71500;50.806;8.774;2023-07-20T12:31:29;99439.69;;;21.38;45.33
81997;BME280;71500;50.806;8.774;2023-07-20T12:34:03;99435.83;;;21.47;45.91
81997;BME280;71500;50.806;8.774;2023-07-20T12:36:34;99438.11;;;21.58;45.24
81997;BME280;71500;50.806;8.774;2023-07-20T12:39:06;99428.02;;;21.60;45.53
81997;BME280;71500;50.806;8.774;2023-07-20T12:41:38;99438.60;;;21.73;44.08
81997;BME280;71500;50.806;8.774;2023-07-20T12:44:09;99442.30;;;21.80;43.44
81997;BME280;71500;50.806;8.774;2023-07-20T12:46:42;99441.46;;;21.85;43.73
81997;BME280;71500;50.806;8.774;2023-07-20T12:49:13;99441.45;;;21.86;43.39
81997;BME280;71500;50.806;8.774;2023-07-20T12:51:45;99435.82;;;21.87;43.98
81997;BME280;71500;50.806;8.774;2023-07-20T12:54:16;99440.08;;;21.86;44.15
81997;BME280;71500;50.806;8.774;2023-07-20T12:56:49;99443.01;;;21.83;44.56
81997;BME280;71500;50.806;8.774;2023-07-20T12:59:23;99439.98;;;21.79;43.92
81997;BME280;71500;50.806;8.774;2023-07-20T13:01:55;99437.94;;;21.73;43.75
81997;BME280;71500;50.806;8.774;2023-07-20T13:04:27;99443.84;;;21.66;43.90
81997;BME280;71500;50.806;8.774;2023-07-20T13:06:59;99442.77;;;21.61;45.07
81997;BME280;71500;50.806;8.774;2023-07-20T13:09:51;99437.57;;;21.58;45.28
81997;BME280;71500;50.806;8.774;2023-07-20T13:12:23;99442.71;;;21.55;44.69
81997;BME280;71500;50.806;8.774;2023-07-20T13:14:55;99443.68;;;21.54;44.95
81997;BME280;71500;50.806;8.774;2023-07-20T13:17:27;99435.75;;;21.46;44.23
81997;BME280;71500;50.806;8.774;2023-07-20T13:19:59;99442.36;;;21.48;43.56
81997;BME280;71500;50.806;8.774;2023-07-20T13:22:31;99444.53;;;21.45;43.04
81997;BME280;71500;50.806;8.774;2023-07-20T13:25:03;99444.59;;;21.44;43.42
81997;BME280;71500;50.806;8.774;2023-07-20T13:27:35;99446.88;;;21.42;43.21
81997;BME280;71500;50.806;8.774;2023-07-20T13:30:09;99446.50;;;21.45;43.09
81997;BME280;71500;50.806;8.774;2023-07-20T13:32:47;99445.41;;;21.47;43.38
81997;BME280;71500;50.806;8.774;2023-07-20T13:35:20;99443.91;;;21.47;44.07
81997;BME280;71500;50.806;8.774;2023-07-20T13:37:52;99443.02;;;21.48;43.98
81997;BME280;71500;50.806;8.774;2023-07-20T13:40:24;99444.78;;;21.48;43.83